Time;durP1;ratioP1;P1;durP2;ratioP2;P2;SDS_P1;SDS_P2;PMS_P1;PMS_P2;Temp;Humidity;BMP_temperature;BMP_pressure;BME280_temperature;BME280_humidity;BME280_pressure;Samples;Min_cycle;Max_cycle;Signal;HPM_P1;HPM_P2
2022/05/31 00:08:23;;;;;;;;;;;20.50;47.40;;;;;;21167910;28;20400;-63
2022/05/31 00:18:25;;;;;;;;;;;20.40;47.20;;;;;;21166234;28;19931;-61
2022/05/31 00:28:27;;;;;;;;;;;20.30;47.30;;;;;;21166502;28;19966;-62
2022/05/31 00:38:28;;;;;;;;;;;20.20;47.60;;;;;;21165904;28;20299;-60
2022/05/31 00:48:34;;;;;;;;;;;20.10;47.70;;;;;;21165066;28;19951;-60
2022/05/31 00:58:37;;;;;;;;;;;19.90;48.10;;;;;;21163181;28;19923;-61
2022/05/31 01:08:44;;;;;;;;;;;19.90;48.50;;;;;;21162779;28;19950;-63
2022/05/31 01:18:46;;;;;;;;;;;19.70;49.00;;;;;;21162648;28;19924;-63
2022/05/31 01:28:48;;;;;;;;;;;19.70;49.20;;;;;;21163650;28;20019;-64
2022/05/31 01:39:00;;;;;;;;;;;19.50;49.80;;;;;;21162496;28;19931;-63
2022/05/31 01:49:06;;;;;;;;;;;19.30;50.30;;;;;;21161937;28;19935;-63
2022/05/31 01:59:12;;;;;;;;;;;19.20;50.80;;;;;;21161919;28;19924;-63
2022/05/31 02:09:21;;;;;;;;;;;19.10;51.30;;;;;;21161377;28;19931;-65
2022/05/31 02:19:28;;;;;;;;;;;19.10;51.50;;;;;;21167251;28;19985;-61
2022/05/31 02:29:30;;;;;;;;;;;;;;;;;;21175573;28;20032;-62
2022/05/31 02:39:31;;;;;;;;;;;19.00;52.80;;;;;;21174411;28;20020;-63
2022/05/31 02:49:32;;;;;;;;;;;18.70;53.00;;;;;;21174152;28;20418;-61
2022/05/31 02:59:33;;;;;;;;;;;18.60;53.60;;;;;;21172899;28;20010;-62
2022/05/31 03:09:35;;;;;;;;;;;;;;;;;;21172944;28;19963;-65
2022/05/31 03:19:37;;;;;;;;;;;;;;;;;;21172891;28;20311;-62
2022/05/31 03:29:40;;;;;;;;;;;19.30;51.90;;;;;;21171238;28;20348;-60
2022/05/31 03:39:41;;;;;;;;;;;;;;;;;;21170934;28;19971;-59
2022/05/31 03:49:43;;;;;;;;;;;;;;;;;;21169264;28;20297;-63
2022/05/31 03:59:45;;;;;;;;;;;;;;;;;;21168951;28;19923;-60
2022/05/31 04:09:47;;;;;;;;;;;;;;;;;;21166709;28;19930;-60
2022/05/31 04:19:49;;;;;;;;;;;;;;;;;;21148780;28;19924;-61
2022/05/31 04:29:51;;;;;;;;;;;;;;;;;;21165329;28;19930;-62
2022/05/31 04:39:53;;;;;;;;;;;;;;;;;;21164084;28;19931;-63
2022/05/31 04:50:00;;;;;;;;;;;;;;;;;;21162669;28;19928;-62
2022/05/31 05:00:02;;;;;;;;;;;;;;;;;;21164146;28;19931;-61
2022/05/31 05:10:04;;;;;;;;;;;;;;;;;;21163817;28;20299;-61
2022/05/31 05:20:06;;;;;;;;;;;;;;;;;;21162927;28;19924;-61
2022/05/31 05:40:29;;;;;;;;;;;;;;;;;;21163215;28;20392;-64
2022/05/31 05:50:31;;;;;;;;;;;;;;;;;;21144913;28;19959;-63
2022/05/31 06:00:37;;;;;;;;;;;18.30;54.60;;;;;;21178853;28;20018;-62
2022/05/31 06:10:39;;;;;;;;;;;;;;;;;;21158510;28;20295;-62
2022/05/31 06:20:44;;;;;;;;;;;17.90;56.20;;;;;;21175589;28;19930;-63
2022/05/31 06:30:45;;;;;;;;;;;18.70;54.40;;;;;;21176055;28;19924;-61
2022/05/31 06:40:47;;;;;;;;;;;18.00;56.00;;;;;;21175197;28;20405;-63
2022/05/31 06:50:49;;;;;;;;;;;18.00;55.50;;;;;;21174625;28;19930;-62
2022/05/31 07:00:53;;;;;;;;;;;;;;;;;;21173763;28;20055;-63
2022/05/31 07:10:54;;;;;;;;;;;21.20;48.70;;;;;;21170840;28;19931;-65
2022/05/31 07:20:56;;;;;;;;;;;21.70;47.10;;;;;;21169848;28;19977;-61
2022/05/31 07:30:58;;;;;;;;;;;21.10;47.90;;;;;;21170819;28;19930;-63
2022/05/31 07:41:00;;;;;;;;;;;21.70;46.90;;;;;;21169956;28;19939;-63
2022/05/31 07:51:02;;;;;;;;;;;22.20;46.20;;;;;;21167770;28;19984;-61
2022/05/31 08:01:05;;;;;;;;;;;;;;;;;;21166465;28;19924;-59
2022/05/31 08:11:07;;;;;;;;;;;;;;;;;;21168357;28;20007;-59
2022/05/31 08:21:10;;;;;;;;;;;24.40;41.60;;;;;;21168645;28;19963;-59
2022/05/31 08:31:12;;;;;;;;;;;23.70;42.50;;;;;;21165107;27;19924;-60
2022/05/31 08:41:16;;;;;;;;;;;;;;;;;;21163226;28;19923;-70
2022/05/31 09:01:39;;;;;;;;;;;;;;;;;;21161931;28;20334;-58
2022/05/31 09:11:44;;;;;;;;;;;26.20;38.00;;;;;;21162357;28;20300;-60
2022/05/31 09:21:47;;;;;;;;;;;25.90;38.60;;;;;;21160706;28;19924;-54
2022/05/31 09:32:23;;;;;;;;;;;25.70;39.60;;;;;;21172225;28;19935;-58
2022/05/31 09:42:29;;;;;;;;;;;25.30;39.50;;;;;;20906775;28;20373;-55
2022/05/31 09:52:42;;;;;;;;;;;25.50;40.00;;;;;;20916224;28;19929;-54
2022/05/31 10:02:57;;;;;;;;;;;25.50;38.80;;;;;;20892509;28;20015;-59
2022/05/31 10:12:59;;;;;;;;;;;25.80;39.00;;;;;;20930843;28;19928;-57
2022/05/31 10:23:13;;;;;;;;;;;25.90;38.30;;;;;;21090359;28;20380;-57
2022/05/31 10:33:23;;;;;;;;;;;25.90;38.70;;;;;;21090183;28;19924;-59
2022/05/31 10:43:33;;;;;;;;;;;26.00;37.90;;;;;;21089752;28;19924;-56
2022/05/31 10:53:50;;;;;;;;;;;26.40;38.10;;;;;;21088422;28;20007;-58
2022/05/31 11:03:59;;;;;;;;;;;26.20;38.30;;;;;;21089852;28;19924;-67
2022/05/31 11:14:16;;;;;;;;;;;26.30;37.90;;;;;;21086712;28;19924;-69
2022/05/31 11:24:31;;;;;;;;;;;26.50;36.70;;;;;;21087453;28;19931;-61
2022/05/31 11:34:48;;;;;;;;;;;26.40;37.70;;;;;;21085245;28;19924;-62
2022/05/31 11:45:10;;;;;;;;;;;26.70;36.90;;;;;;21099456;28;20419;-66
2022/05/31 11:55:30;;;;;;;;;;;27.50;35.40;;;;;;21072233;28;19925;-65
2022/05/31 12:05:36;;;;;;;;;;;27.10;35.40;;;;;;21166694;28;19924;-65
2022/05/31 12:15:42;;;;;;;;;;;27.40;34.40;;;;;;21167158;28;20299;-65
2022/05/31 12:25:44;;;;;;;;;;;;;;;;;;21149030;28;19930;-67
2022/05/31 12:35:49;;;;;;;;;;;28.60;31.30;;;;;;21165009;28;19931;-64
2022/05/31 12:45:52;;;;;;;;;;;28.10;32.90;;;;;;21164518;28;19927;-65
2022/05/31 12:55:56;;;;;;;;;;;28.40;32.40;;;;;;21163993;28;20103;-63
2022/05/31 13:05:58;;;;;;;;;;;28.30;31.60;;;;;;21163199;28;20268;-62
2022/05/31 13:26:25;;;;;;;;;;;28.70;30.40;;;;;;21165280;28;19930;-68
2022/05/31 13:36:28;;;;;;;;;;;;;;;;;;21163484;28;19924;-67
2022/05/31 13:46:29;;;;;;;;;;;;;;;;;;21164710;28;19924;-64
2022/05/31 13:56:31;;;;;;;;;;;;;;;;;;21162056;28;19980;-68
2022/05/31 14:06:37;;;;;;;;;;;;;;;;;;21161444;28;20311;-61
2022/05/31 14:16:39;;;;;;;;;;;30.20;27.40;;;;;;21169732;28;20057;-67
2022/05/31 14:26:42;;;;;;;;;;;29.30;27.40;;;;;;21173820;28;19924;-66
2022/05/31 14:48:25;;;;;;;;;;;29.60;27.50;;;;;;20509540;29;19985;-65
2022/05/31 14:58:40;;;;;;;;;;;29.50;27.30;;;;;;20506802;29;19962;-66
2022/05/31 15:08:42;;;;;;;;;;;;;;;;;;20506882;29;19931;-64
2022/05/31 15:18:56;;;;;;;;;;;30.40;26.00;;;;;;20778320;28;20046;-65
2022/05/31 15:28:58;;;;;;;;;;;30.50;25.60;;;;;;21170845;28;20369;-65
2022/05/31 15:39:02;;;;;;;;;;;;;;;;;;21185778;27;19923;-65
2022/05/31 15:49:05;;;;;;;;;;;;;;;;;;21170526;28;19924;-66
2022/05/31 15:59:08;;;;;;;;;;;;;;;;;;21168987;28;20383;-66
2022/05/31 16:09:11;;;;;;;;;;;30.70;23.60;;;;;;21168729;28;19931;-65
2022/05/31 16:19:13;;;;;;;;;;;;;;;;;;21165823;28;19973;-64
2022/05/31 16:29:16;;;;;;;;;;;30.90;22.10;;;;;;21165392;28;20398;-66
2022/05/31 16:49:41;;;;;;;;;;;;;;;;;;21164296;28;20410;-65
2022/05/31 16:59:44;;;;;;;;;;;;;;;;;;21163546;28;19967;-67
2022/05/31 17:20:22;;;;;;;;;;;;;;;;;;21162528;28;19931;-65
2022/05/31 17:30:24;;;;;;;;;;;;;;;;;;21161075;28;19924;-65
2022/05/31 17:40:26;;;;;;;;;;;;;;;;;;21160153;28;19923;-63
2022/05/31 17:50:28;;;;;;;;;;;;;;;;;;21168364;28;20022;-63
2022/05/31 18:00:32;;;;;;;;;;;;;;;;;;21177556;28;19951;-67
2022/05/31 18:10:34;;;;;;;;;;;;;;;;;;21184814;28;20014;-65
2022/05/31 18:20:38;;;;;;;;;;;;;;;;;;21190988;28;20294;-65
2022/05/31 18:30:40;;;;;;;;;;;29.70;22.80;;;;;;21175107;28;19931;-66
2022/05/31 18:40:42;;;;;;;;;;;29.60;23.10;;;;;;21190303;27;19928;-63
2022/05/31 18:50:43;;;;;;;;;;;29.30;23.20;;;;;;21173644;28;19923;-63
2022/05/31 19:00:45;;;;;;;;;;;29.20;23.10;;;;;;21172093;28;19949;-63
2022/05/31 19:10:47;;;;;;;;;;;28.90;23.00;;;;;;21172969;28;19924;-63
2022/05/31 19:20:48;;;;;;;;;;;28.80;23.20;;;;;;21171019;28;19968;-66
2022/05/31 19:30:50;;;;;;;;;;;28.50;23.70;;;;;;21171887;28;19959;-64
2022/05/31 19:40:52;;;;;;;;;;;28.20;23.90;;;;;;21169889;28;19936;-64
2022/05/31 19:50:55;;;;;;;;;;;27.90;24.10;;;;;;21168682;28;19923;-65
2022/05/31 20:00:58;;;;;;;;;;;27.70;24.50;;;;;;21168813;28;19971;-66
2022/05/31 20:11:00;;;;;;;;;;;27.40;24.50;;;;;;21167411;28;20022;-66
2022/05/31 20:21:09;;;;;;;;;;;27.20;24.90;;;;;;21166013;28;20416;-63
2022/05/31 20:31:11;;;;;;;;;;;;;;;;;;21165429;28;19923;-62
2022/05/31 20:41:14;;;;;;;;;;;26.90;25.80;;;;;;21163983;28;19992;-62
2022/05/31 20:51:16;;;;;;;;;;;26.70;26.10;;;;;;21179464;27;19923;-62
2022/05/31 21:01:21;;;;;;;;;;;26.40;26.40;;;;;;21163553;28;19923;-63
2022/05/31 21:11:23;;;;;;;;;;;26.20;26.90;;;;;;21163230;28;19924;-62
2022/05/31 21:21:31;;;;;;;;;;;26.10;27.30;;;;;;21167109;28;19923;-63
2022/05/31 21:31:33;;;;;;;;;;;25.90;27.90;;;;;;21191277;28;19954;-63
2022/05/31 21:41:35;;;;;;;;;;;25.70;28.20;;;;;;21190091;28;19923;-62
2022/05/31 21:51:38;;;;;;;;;;;25.60;28.30;;;;;;21190949;28;19963;-62
2022/05/31 22:01:40;;;;;;;;;;;25.50;28.70;;;;;;21190896;28;19924;-67
2022/05/31 22:11:42;;;;;;;;;;;25.40;29.00;;;;;;21190764;28;20296;-66
2022/05/31 22:21:45;;;;;;;;;;;25.20;29.00;;;;;;21193697;28;20339;-65
2022/05/31 22:31:47;;;;;;;;;;;25.20;28.30;;;;;;21192552;28;19923;-62
2022/05/31 22:41:49;;;;;;;;;;;25.10;27.60;;;;;;21176465;28;19949;-68
2022/05/31 22:51:52;;;;;;;;;;;25.10;27.80;;;;;;21178065;28;19928;-64
2022/05/31 23:01:55;;;;;;;;;;;24.90;27.90;;;;;;21176103;28;19924;-64
2022/05/31 23:11:59;;;;;;;;;;;24.80;27.90;;;;;;21192016;27;19930;-60
2022/05/31 23:32:21;;;;;;;;;;;24.60;28.60;;;;;;21171492;28;20015;-65
2022/05/31 23:42:22;;;;;;;;;;;24.40;29.10;;;;;;21151649;28;19934;-65
2022/05/31 23:52:25;;;;;;;;;;;24.40;29.50;;;;;;21168763;28;20026;-61
